Time;durP1;ratioP1;P1;durP2;ratioP2;P2;SDS_P1;SDS_P2;PMS_P1;PMS_P2;Temp;Humidity;BMP_temperature;BMP_pressure;BME280_temperature;BME280_humidity;BME280_pressure;Samples;Min_cycle;Max_cycle;Signal;HPM_P1;HPM_P2
2022/07/27 00:01:03;;;;;;;4.30;3.90;;;24.40;74.60;;;;;;5020593;28;20728;-75
2022/07/27 00:03:29;;;;;;;4.30;3.90;;;24.30;74.80;;;;;;5025134;28;20295;-75
2022/07/27 00:05:54;;;;;;;8.37;4.57;;;24.30;75.20;;;;;;5030096;28;21067;-76
2022/07/27 00:08:22;;;;;;;5.40;3.97;;;24.30;75.30;;;;;;5014829;28;20194;-75
2022/07/27 00:10:49;;;;;;;4.67;4.27;;;24.30;75.50;;;;;;5026563;28;20238;-75
2022/07/27 00:13:14;;;;;;;5.00;4.60;;;24.30;75.50;;;;;;5026769;28;20518;-75
2022/07/27 00:15:41;;;;;;;5.27;4.77;;;24.30;75.50;;;;;;5024943;28;20557;-76
2022/07/27 00:18:06;;;;;;;4.90;4.30;;;24.30;75.70;;;;;;5025958;28;20219;-75
2022/07/27 00:20:32;;;;;;;4.90;4.07;;;24.30;76.20;;;;;;5028580;28;21141;-75
2022/07/27 00:22:58;;;;;;;4.30;4.00;;;24.30;76.10;;;;;;5024127;28;20256;-75
2022/07/27 00:25:28;;;;;;;4.53;4.20;;;24.30;76.10;;;;;;5025595;28;20235;-75
2022/07/27 00:27:57;;;;;;;4.40;4.00;;;24.30;76.10;;;;;;5027160;28;20434;-75
2022/07/27 00:30:24;;;;;;;4.60;4.20;;;24.30;76.30;;;;;;5024866;28;20534;-75
2022/07/27 00:32:50;;;;;;;4.80;4.23;;;24.30;76.60;;;;;;5022987;28;20442;-75
2022/07/27 00:35:17;;;;;;;4.47;4.07;;;24.20;76.70;;;;;;5024443;28;20497;-75
2022/07/27 00:37:42;;;;;;;4.63;4.20;;;24.20;77.30;;;;;;5023777;28;20801;-75
2022/07/27 00:40:09;;;;;;;8.50;4.37;;;24.20;77.20;;;;;;5027161;28;20446;-75
2022/07/27 00:42:35;;;;;;;4.70;4.20;;;24.20;77.40;;;;;;5025211;28;20539;-74
2022/07/27 00:45:02;;;;;;;4.20;3.90;;;24.20;77.50;;;;;;5021432;28;20449;-75
2022/07/27 00:47:27;;;;;;;5.93;4.20;;;24.10;77.70;;;;;;5022063;28;20442;-75
2022/07/27 00:49:53;;;;;;;5.00;4.10;;;24.20;77.80;;;;;;5021531;28;22330;-75
2022/07/27 00:52:21;;;;;;;5.33;4.27;;;24.20;77.80;;;;;;5025594;28;20248;-75
2022/07/27 00:54:47;;;;;;;3.90;3.60;;;24.20;77.90;;;;;;5028181;28;20211;-75
2022/07/27 00:57:14;;;;;;;4.80;4.37;;;24.10;78.30;;;;;;5023610;28;21412;-75
2022/07/27 00:59:40;;;;;;;4.60;4.30;;;24.10;78.30;;;;;;5022897;28;20181;-75
2022/07/27 01:02:07;;;;;;;5.10;4.60;;;24.10;79.00;;;;;;5026617;28;20815;-75
2022/07/27 01:04:33;;;;;;;4.43;4.13;;;24.10;78.20;;;;;;5022529;28;20493;-75
2022/07/27 01:06:59;;;;;;;4.53;4.13;;;24.10;78.50;;;;;;5025610;28;20960;-75
2022/07/27 01:12:13;;;;;;;4.60;4.20;;;24.00;78.70;;;;;;5023121;28;20445;-75
2022/07/27 01:14:39;;;;;;;7.00;4.77;;;23.90;79.30;;;;;;5023296;28;20469;-75
2022/07/27 01:17:06;;;;;;;5.93;4.63;;;23.90;79.60;;;;;;5022581;28;20469;-75
2022/07/27 01:19:33;;;;;;;4.53;4.13;;;23.90;79.70;;;;;;5026926;28;20192;-75
2022/07/27 01:21:58;;;;;;;4.20;3.80;;;23.90;80.30;;;;;;5023005;28;20446;-75
2022/07/27 01:24:24;;;;;;;4.10;3.80;;;23.90;80.40;;;;;;5023621;28;20431;-75
2022/07/27 01:26:50;;;;;;;3.90;3.60;;;23.90;80.40;;;;;;5025979;28;20275;-75
2022/07/27 01:29:15;;;;;;;8.43;5.10;;;23.80;80.50;;;;;;5023268;28;20691;-75
2022/07/27 01:31:41;;;;;;;5.97;4.23;;;23.80;80.80;;;;;;5026489;28;20219;-74
2022/07/27 01:34:07;;;;;;;4.60;4.20;;;23.80;81.00;;;;;;5024632;28;20212;-75
2022/07/27 01:36:32;;;;;;;9.90;4.40;;;23.80;81.10;;;;;;5024238;28;20637;-75
2022/07/27 01:38:58;;;;;;;4.17;3.87;;;23.70;81.40;;;;;;5018603;28;20595;-75
2022/07/27 01:41:24;;;;;;;3.83;3.53;;;23.70;81.50;;;;;;5026787;28;20242;-75
2022/07/27 01:43:49;;;;;;;4.50;4.10;;;23.70;81.60;;;;;;5028243;28;20181;-75
2022/07/27 01:46:15;;;;;;;3.90;3.60;;;23.70;81.80;;;;;;5027358;28;20654;-75
2022/07/27 01:48:41;;;;;;;4.27;3.97;;;23.70;81.80;;;;;;5015211;28;20181;-75
2022/07/27 01:51:06;;;;;;;4.43;4.10;;;23.70;81.90;;;;;;5025827;28;20203;-75
2022/07/27 01:53:32;;;;;;;4.20;3.90;;;23.60;82.70;;;;;;5028484;28;20193;-77
2022/07/27 01:55:58;;;;;;;4.60;4.20;;;23.60;82.40;;;;;;5026993;28;20220;-76
2022/07/27 01:58:23;;;;;;;6.23;4.53;;;23.50;82.40;;;;;;5021885;28;20646;-76
2022/07/27 02:00:50;;;;;;;4.50;4.10;;;23.50;82.20;;;;;;5023155;28;21565;-76
2022/07/27 02:03:16;;;;;;;3.97;3.67;;;23.40;82.30;;;;;;5024286;28;20335;-76
2022/07/27 02:05:41;;;;;;;4.50;4.10;;;23.30;82.70;;;;;;5031639;28;20962;-76
2022/07/27 02:08:07;;;;;;;4.20;3.90;;;23.30;82.90;;;;;;5024941;28;21224;-76
2022/07/27 02:10:35;;;;;;;4.50;4.10;;;23.30;82.70;;;;;;5030855;28;20447;-76
2022/07/27 02:13:01;;;;;;;4.47;3.87;;;23.30;82.50;;;;;;5029542;28;20496;-76
2022/07/27 02:15:28;;;;;;;4.17;3.63;;;23.30;82.20;;;;;;5027218;28;20469;-76
2022/07/27 02:17:54;;;;;;;5.00;3.97;;;23.30;81.90;;;;;;5024979;28;20185;-76
2022/07/27 02:20:23;;;;;;;5.23;3.90;;;23.20;82.20;;;;;;5025631;28;20411;-76
2022/07/27 02:22:50;;;;;;;5.30;4.90;;;23.20;82.20;;;;;;5028573;28;20466;-76
2022/07/27 02:25:20;;;;;;;4.40;3.80;;;23.10;82.40;;;;;;5029653;28;20501;-76
2022/07/27 02:27:46;;;;;;;4.20;3.90;;;23.10;82.30;;;;;;5026040;28;20416;-76
2022/07/27 02:30:12;;;;;;;4.50;4.10;;;23.10;82.30;;;;;;5027067;28;20456;-76
2022/07/27 02:32:39;;;;;;;4.10;3.80;;;23.00;83.60;;;;;;5025798;28;20527;-76
2022/07/27 02:35:06;;;;;;;3.90;3.60;;;23.00;82.70;;;;;;5023615;28;20901;-76
2022/07/27 02:37:31;;;;;;;4.30;4.00;;;23.00;82.70;;;;;;5029527;28;21019;-76
2022/07/27 02:39:57;;;;;;;4.30;4.00;;;23.00;82.70;;;;;;5026257;28;20431;-76
2022/07/27 02:42:23;;;;;;;3.67;3.37;;;23.10;82.90;;;;;;5018153;28;20246;-76
2022/07/27 02:44:48;;;;;;;3.97;3.67;;;23.10;83.10;;;;;;5031245;28;20185;-76
2022/07/27 02:47:14;;;;;;;4.20;3.90;;;23.00;83.00;;;;;;5025041;28;20201;-76
2022/07/27 02:49:40;;;;;;;4.00;3.63;;;23.10;83.10;;;;;;5014450;28;20215;-76
2022/07/27 02:52:06;;;;;;;4.80;3.43;;;23.10;83.30;;;;;;5023325;28;20245;-76
2022/07/27 02:54:32;;;;;;;4.00;3.63;;;23.00;83.40;;;;;;5023647;28;20188;-76
2022/07/27 02:56:59;;;;;;;4.10;3.80;;;23.00;83.50;;;;;;5028206;28;20460;-76
2022/07/27 02:59:25;;;;;;;4.33;3.93;;;23.00;83.80;;;;;;5026346;28;20443;-75
2022/07/27 03:01:51;;;;;;;6.10;4.33;;;23.00;83.80;;;;;;5026756;28;20520;-76
2022/07/27 03:04:17;;;;;;;4.10;3.80;;;23.00;83.90;;;;;;5023840;28;20587;-76
2022/07/27 03:06:43;;;;;;;4.20;3.90;;;23.00;84.20;;;;;;5026661;28;20234;-76
2022/07/27 03:09:09;;;;;;;6.73;4.17;;;23.00;84.10;;;;;;5023290;28;20446;-76
2022/07/27 03:11:35;;;;;;;4.00;3.70;;;23.00;84.10;;;;;;5023572;28;21364;-76
2022/07/27 03:14:01;;;;;;;4.07;3.67;;;23.10;84.20;;;;;;5030249;28;20191;-76
2022/07/27 03:16:26;;;;;;;4.47;4.07;;;23.00;84.50;;;;;;5029538;28;20474;-75
2022/07/27 03:18:52;;;;;;;3.80;3.50;;;23.10;84.40;;;;;;5021540;28;20193;-76
2022/07/27 03:21:18;;;;;;;4.40;4.00;;;23.10;84.40;;;;;;5026394;28;20187;-75
2022/07/27 03:23:44;;;;;;;4.30;4.00;;;23.10;85.20;;;;;;5022650;28;20250;-76
2022/07/27 03:26:09;;;;;;;3.90;3.60;;;23.10;84.60;;;;;;5027056;28;20208;-76
2022/07/27 03:28:35;;;;;;;5.00;4.13;;;23.00;84.70;;;;;;5025923;28;20623;-76
2022/07/27 03:31:02;;;;;;;3.90;3.40;;;23.00;84.90;;;;;;5023583;28;20247;-76
2022/07/27 03:33:28;;;;;;;4.10;3.70;;;22.90;85.10;;;;;;5024763;28;20443;-76
2022/07/27 03:35:54;;;;;;;3.80;3.50;;;22.90;85.20;;;;;;5025006;28;20470;-76
2022/07/27 03:38:21;;;;;;;3.70;3.40;;;23.00;85.20;;;;;;5022500;28;20440;-76
2022/07/27 03:40:47;;;;;;;4.20;3.80;;;22.90;85.10;;;;;;5025759;28;20191;-76
2022/07/27 03:43:13;;;;;;;3.97;3.67;;;22.90;85.40;;;;;;5025129;28;20419;-76
2022/07/27 03:45:39;;;;;;;5.20;3.90;;;22.90;85.60;;;;;;5026310;28;20555;-76
2022/07/27 03:48:05;;;;;;;4.53;3.83;;;22.90;85.70;;;;;;5024796;28;20262;-76
2022/07/27 03:50:31;;;;;;;4.83;4.43;;;23.00;85.90;;;;;;5024832;28;20446;-76
2022/07/27 03:52:57;;;;;;;4.57;4.00;;;22.90;85.80;;;;;;5024235;28;20435;-76
2022/07/27 03:55:23;;;;;;;4.43;3.67;;;22.90;85.90;;;;;;5029376;28;20493;-76
2022/07/27 03:57:49;;;;;;;4.37;3.80;;;22.90;86.30;;;;;;5027227;28;20221;-76
2022/07/27 04:00:15;;;;;;;4.23;3.63;;;22.90;86.20;;;;;;5022480;28;20673;-76
2022/07/27 04:02:41;;;;;;;4.93;3.67;;;22.90;86.40;;;;;;5022195;28;20561;-76
2022/07/27 04:05:08;;;;;;;4.40;3.90;;;22.80;86.30;;;;;;5023026;28;20545;-75
2022/07/27 04:07:34;;;;;;;7.27;3.60;;;22.90;86.40;;;;;;5022193;28;20189;-74
2022/07/27 04:10:00;;;;;;;4.43;4.03;;;22.80;86.40;;;;;;5026313;28;20450;-76
2022/07/27 04:12:26;;;;;;;3.80;3.50;;;22.80;86.50;;;;;;5030113;28;20310;-76
2022/07/27 04:14:51;;;;;;;4.17;3.87;;;22.80;86.60;;;;;;5024618;28;20616;-76
2022/07/27 04:17:17;;;;;;;4.20;3.80;;;22.80;87.00;;;;;;5027578;28;20666;-76
2022/07/27 04:19:43;;;;;;;4.37;3.90;;;22.80;87.00;;;;;;5022256;28;20188;-76
2022/07/27 04:22:08;;;;;;;4.17;3.87;;;22.80;87.10;;;;;;5025219;28;20180;-75
2022/07/27 04:24:34;;;;;;;8.60;3.40;;;22.80;87.30;;;;;;5026791;28;20192;-76
2022/07/27 04:26:59;;;;;;;4.10;3.80;;;22.80;87.90;;;;;;5026168;28;20243;-76
2022/07/27 04:29:26;;;;;;;6.33;3.73;;;22.80;87.80;;;;;;4985616;28;1103109;-77
2022/07/27 04:31:52;;;;;;;4.10;3.70;;;22.80;88.10;;;;;;5029100;28;20189;-76
2022/07/27 04:34:18;;;;;;;3.83;3.53;;;22.80;88.00;;;;;;5021229;28;20189;-76
2022/07/27 04:36:44;;;;;;;4.20;3.90;;;22.80;88.20;;;;;;5025699;28;20458;-75
2022/07/27 04:39:10;;;;;;;5.47;3.90;;;22.80;87.80;;;;;;5029439;28;20933;-76
2022/07/27 04:41:35;;;;;;;3.80;3.50;;;22.80;87.80;;;;;;5022074;28;20238;-76
2022/07/27 04:44:01;;;;;;;4.10;3.80;;;22.80;87.80;;;;;;5026045;28;20882;-76
2022/07/27 04:46:28;;;;;;;4.23;3.70;;;22.80;87.90;;;;;;5026702;28;20566;-75
2022/07/27 04:48:54;;;;;;;3.87;3.57;;;22.80;87.70;;;;;;5019530;28;20222;-76
2022/07/27 04:51:20;;;;;;;3.70;3.30;;;22.80;87.70;;;;;;5023336;28;20554;-76
2022/07/27 04:53:46;;;;;;;4.47;3.90;;;22.80;87.80;;;;;;5028116;28;20442;-76
2022/07/27 04:56:12;;;;;;;4.30;3.60;;;22.80;87.80;;;;;;5023396;28;20243;-76
2022/07/27 04:58:38;;;;;;;4.53;3.23;;;22.80;87.80;;;;;;5016354;28;20212;-76
2022/07/27 05:01:04;;;;;;;5.60;3.47;;;22.80;87.80;;;;;;5023644;28;20514;-75
2022/07/27 05:03:29;;;;;;;4.00;3.60;;;22.80;87.90;;;;;;5021421;28;20181;-75
2022/07/27 05:05:55;;;;;;;4.00;3.60;;;22.70;88.10;;;;;;5027802;28;20458;-75
2022/07/27 05:08:21;;;;;;;6.13;3.63;;;22.70;89.20;;;;;;5025680;28;20181;-75
2022/07/27 05:10:47;;;;;;;4.00;3.57;;;22.70;88.30;;;;;;5025623;28;20180;-75
2022/07/27 05:13:13;;;;;;;4.83;3.40;;;22.80;88.40;;;;;;5027167;28;20442;-75
2022/07/27 05:15:39;;;;;;;4.07;3.27;;;22.70;88.40;;;;;;5026390;28;20281;-76
2022/07/27 05:18:05;;;;;;;6.50;4.03;;;22.70;89.00;;;;;;5025119;28;20438;-76
2022/07/27 05:20:31;;;;;;;3.70;3.40;;;22.70;88.90;;;;;;5031289;28;20434;-75
2022/07/27 05:22:57;;;;;;;3.50;3.20;;;22.70;89.20;;;;;;5026632;28;20443;-75
2022/07/27 05:25:26;;;;;;;4.20;3.37;;;22.70;89.30;;;;;;5026481;28;20465;-76
2022/07/27 05:27:52;;;;;;;3.80;3.50;;;22.70;89.20;;;;;;5031708;28;20262;-76
2022/07/27 05:30:18;;;;;;;4.17;3.13;;;22.70;89.40;;;;;;5028554;28;20455;-76
2022/07/27 05:32:44;;;;;;;3.67;3.07;;;22.60;89.60;;;;;;5047470;28;20447;-76
2022/07/27 05:35:10;;;;;;;3.60;2.80;;;22.60;89.70;;;;;;5016316;28;20468;-76
2022/07/27 05:37:36;;;;;;;3.47;3.17;;;22.60;90.00;;;;;;5029245;28;20836;-76
2022/07/27 05:40:03;;;;;;;4.90;3.07;;;22.70;90.00;;;;;;5029098;28;20184;-76
2022/07/27 05:42:29;;;;;;;3.50;3.20;;;22.60;90.10;;;;;;5028218;28;20741;-76
2022/07/27 05:44:55;;;;;;;3.33;3.03;;;22.50;90.50;;;;;;5025727;28;20434;-76
2022/07/27 05:47:20;;;;;;;4.30;3.87;;;22.50;90.50;;;;;;5028776;28;20196;-76
2022/07/27 05:49:47;;;;;;;3.40;3.10;;;22.50;90.60;;;;;;5025483;28;20264;-76
2022/07/27 05:52:13;;;;;;;3.60;3.30;;;22.60;90.90;;;;;;5030939;28;20184;-76
2022/07/27 05:54:40;;;;;;;3.67;3.20;;;22.60;90.50;;;;;;5027590;28;20466;-76
2022/07/27 05:57:06;;;;;;;3.60;3.10;;;22.60;90.60;;;;;;5025778;28;20465;-76
2022/07/27 05:59:31;;;;;;;3.40;3.03;;;22.60;90.70;;;;;;5021735;28;20450;-76
2022/07/27 06:01:58;;;;;;;4.23;3.30;;;22.60;90.70;;;;;;5030690;28;20272;-76
2022/07/27 06:04:24;;;;;;;5.27;3.90;;;22.60;90.90;;;;;;5013525;28;20602;-76
2022/07/27 06:09:34;;;;;;;3.60;3.10;;;22.60;91.00;;;;;;5028297;28;20191;-76
2022/07/27 06:12:00;;;;;;;3.30;3.10;;;22.60;91.10;;;;;;5031988;28;20435;-76
2022/07/27 06:14:26;;;;;;;4.43;4.07;;;22.60;91.20;;;;;;5027560;28;20260;-76
2022/07/27 06:16:52;;;;;;;3.30;3.00;;;22.60;91.20;;;;;;5025362;28;20467;-76
2022/07/27 06:19:17;;;;;;;3.70;3.40;;;22.60;91.30;;;;;;5021692;28;20184;-75
2022/07/27 06:21:43;;;;;;;3.47;3.27;;;22.70;91.40;;;;;;5024580;28;20185;-76
2022/07/27 06:24:09;;;;;;;4.17;3.70;;;22.70;91.40;;;;;;5026963;28;20203;-76
2022/07/27 06:26:34;;;;;;;3.70;3.37;;;22.80;91.40;;;;;;5022077;28;20298;-75
2022/07/27 06:29:00;;;;;;;5.50;3.40;;;22.80;91.50;;;;;;5027735;28;20288;-76
2022/07/27 06:31:26;;;;;;;5.67;3.90;;;22.90;91.40;;;;;;5026944;28;21231;-75
2022/07/27 06:33:53;;;;;;;4.40;3.43;;;22.90;91.20;;;;;;5029152;28;20180;-75
2022/07/27 06:36:19;;;;;;;4.30;3.50;;;22.90;91.20;;;;;;5026171;28;20470;-75
2022/07/27 06:38:46;;;;;;;6.10;3.40;;;22.90;91.30;;;;;;5025856;28;21000;-75
2022/07/27 06:41:11;;;;;;;3.93;3.47;;;22.90;91.30;;;;;;5026665;28;20445;-75
2022/07/27 06:43:37;;;;;;;3.43;3.13;;;23.00;91.20;;;;;;5028210;28;20435;-75
2022/07/27 06:46:04;;;;;;;5.40;3.70;;;22.90;91.20;;;;;;5025499;28;20265;-76
2022/07/27 06:48:30;;;;;;;4.10;3.17;;;22.90;91.00;;;;;;5026474;28;20173;-75
2022/07/27 06:50:56;;;;;;;10.63;3.47;;;23.00;90.90;;;;;;5026498;28;20479;-75
2022/07/27 06:53:22;;;;;;;3.40;3.10;;;23.00;90.90;;;;;;5028669;28;20254;-75
2022/07/27 06:55:48;;;;;;;4.20;3.10;;;23.00;90.90;;;;;;5027307;28;20208;-75
2022/07/27 06:58:14;;;;;;;3.60;3.30;;;23.00;91.00;;;;;;5024451;28;20522;-76
2022/07/27 07:00:39;;;;;;;5.07;3.27;;;23.00;91.00;;;;;;5026374;28;20506;-76
2022/07/27 07:03:05;;;;;;;5.37;3.57;;;23.00;91.00;;;;;;5018526;28;20291;-76
2022/07/27 07:05:33;;;;;;;3.40;3.10;;;23.10;91.00;;;;;;5025850;28;20273;-76
2022/07/27 07:08:00;;;;;;;3.40;3.10;;;23.10;91.10;;;;;;5025905;28;20450;-75
2022/07/27 07:10:26;;;;;;;3.50;3.13;;;23.10;91.00;;;;;;5023372;28;20480;-76
2022/07/27 07:12:56;;;;;;;3.23;3.03;;;23.20;90.80;;;;;;5024753;28;20446;-76
2022/07/27 07:15:25;;;;;;;3.70;3.13;;;23.30;90.90;;;;;;5027784;28;20471;-76
2022/07/27 07:17:51;;;;;;;4.43;3.17;;;23.40;90.20;;;;;;5026495;28;20882;-76
2022/07/27 07:20:17;;;;;;;3.57;3.27;;;23.50;90.00;;;;;;5026534;28;20486;-76
2022/07/27 07:22:42;;;;;;;3.17;2.87;;;23.50;90.10;;;;;;5024550;28;20437;-75
2022/07/27 07:25:08;;;;;;;3.17;2.97;;;23.60;90.10;;;;;;5022798;28;20203;-76
2022/07/27 07:27:34;;;;;;;3.50;2.90;;;23.70;90.20;;;;;;5023627;28;20667;-76
2022/07/27 07:30:01;;;;;;;3.13;2.83;;;23.80;90.00;;;;;;5020920;28;20520;-76
2022/07/27 07:32:27;;;;;;;2.70;2.50;;;23.80;89.10;;;;;;5030874;28;20188;-76
2022/07/27 07:34:54;;;;;;;3.20;2.90;;;23.90;89.00;;;;;;5022692;28;20470;-76
2022/07/27 07:37:19;;;;;;;3.57;3.10;;;24.00;88.30;;;;;;5025338;28;20183;-76
2022/07/27 07:39:46;;;;;;;5.00;2.90;;;24.00;88.20;;;;;;5025106;28;20435;-76
2022/07/27 07:42:12;;;;;;;3.80;3.40;;;24.00;87.90;;;;;;5026557;28;20786;-76
2022/07/27 07:44:38;;;;;;;3.20;2.90;;;24.10;87.80;;;;;;5030825;28;20423;-75
2022/07/27 07:47:04;;;;;;;6.53;3.40;;;24.10;87.50;;;;;;5023515;28;20505;-76
2022/07/27 07:49:30;;;;;;;3.33;2.93;;;24.10;87.80;;;;;;5019695;28;20215;-76
2022/07/27 07:51:56;;;;;;;3.23;3.00;;;24.00;87.90;;;;;;5023846;28;20462;-76
2022/07/27 07:54:21;;;;;;;4.87;2.93;;;24.00;87.70;;;;;;5025206;28;20234;-76
2022/07/27 07:56:47;;;;;;;3.20;2.90;;;24.00;87.60;;;;;;5029684;28;20220;-76
2022/07/27 07:59:13;;;;;;;4.03;2.87;;;24.00;87.70;;;;;;5011086;28;20200;-76
2022/07/27 08:01:39;;;;;;;3.33;3.03;;;24.00;88.00;;;;;;5014925;28;20184;-75
2022/07/27 08:04:05;;;;;;;3.30;3.10;;;23.90;87.80;;;;;;5028742;28;20448;-76
2022/07/27 08:06:30;;;;;;;3.50;3.20;;;24.00;88.10;;;;;;5012005;28;20208;-75
2022/07/27 08:08:57;;;;;;;3.90;3.50;;;24.00;88.00;;;;;;5023034;28;20604;-75
2022/07/27 08:11:23;;;;;;;3.30;3.00;;;24.00;87.30;;;;;;5025648;28;20578;-76
2022/07/27 08:13:49;;;;;;;3.97;3.47;;;24.00;86.90;;;;;;5016380;28;20435;-76
2022/07/27 08:16:15;;;;;;;3.70;3.30;;;24.00;87.10;;;;;;5032739;28;20964;-76
2022/07/27 08:18:42;;;;;;;5.13;3.20;;;23.80;87.70;;;;;;5028261;28;20176;-75
2022/07/27 08:21:07;;;;;;;3.40;3.03;;;23.80;88.40;;;;;;5027118;28;20863;-76
2022/07/27 08:23:33;;;;;;;5.13;3.70;;;23.90;88.40;;;;;;5028724;28;20447;-76
2022/07/27 08:25:59;;;;;;;3.10;2.90;;;23.80;88.50;;;;;;5029983;28;20234;-77
2022/07/27 08:28:25;;;;;;;3.13;2.83;;;23.90;88.40;;;;;;5033771;28;20298;-76
2022/07/27 08:30:50;;;;;;;3.00;2.80;;;23.90;88.10;;;;;;5024245;28;20232;-76
2022/07/27 08:33:16;;;;;;;4.00;3.40;;;23.80;88.10;;;;;;5024406;28;20477;-76
2022/07/27 08:35:43;;;;;;;4.10;3.33;;;23.80;88.00;;;;;;5025051;28;20215;-76
2022/07/27 08:38:09;;;;;;;4.73;3.27;;;23.90;88.20;;;;;;5020190;28;20183;-76
2022/07/27 08:40:36;;;;;;;7.83;3.23;;;23.90;87.60;;;;;;5012584;28;20491;-76
2022/07/27 08:43:03;;;;;;;3.73;3.20;;;23.90;87.70;;;;;;5024044;28;20430;-76
2022/07/27 08:45:29;;;;;;;3.33;3.07;;;23.90;87.20;;;;;;5018831;28;20458;-76
2022/07/27 08:47:55;;;;;;;3.70;3.40;;;23.90;87.00;;;;;;5019600;28;20447;-76
2022/07/27 08:50:26;;;;;;;6.70;3.97;;;24.00;87.50;;;;;;5020655;28;20503;-76
2022/07/27 08:53:07;;;;;;;4.33;3.40;;;24.00;87.60;;;;;;5025550;28;20869;-76
2022/07/27 08:55:38;;;;;;;3.10;2.77;;;24.00;86.30;;;;;;5032296;28;20470;-76
2022/07/27 08:58:05;;;;;;;3.10;2.80;;;24.00;87.70;;;;;;5026867;28;20444;-76
2022/07/27 09:00:32;;;;;;;3.57;3.10;;;24.00;88.40;;;;;;5027763;28;20457;-76
2022/07/27 09:02:58;;;;;;;4.93;3.77;;;24.10;88.40;;;;;;5034859;28;21257;-76
2022/07/27 09:05:24;;;;;;;3.17;2.90;;;24.10;88.70;;;;;;5025225;28;20462;-76
2022/07/27 09:07:50;;;;;;;3.87;3.20;;;24.10;88.40;;;;;;5032776;28;20532;-76
2022/07/27 09:10:34;;;;;;;3.80;3.20;;;24.20;88.20;;;;;;5029996;28;20461;-76
2022/07/27 09:13:16;;;;;;;3.53;3.20;;;24.20;88.60;;;;;;5022260;28;21035;-76
2022/07/27 09:15:47;;;;;;;6.70;3.30;;;24.30;88.40;;;;;;5025149;28;21141;-76
2022/07/27 09:18:21;;;;;;;3.40;2.97;;;24.40;87.80;;;;;;5017292;28;20442;-76
2022/07/27 09:21:10;;;;;;;3.30;2.97;;;24.40;87.50;;;;;;5026046;28;20429;-76
2022/07/27 09:23:40;;;;;;;4.73;3.20;;;24.40;88.00;;;;;;5022617;28;20431;-76
2022/07/27 09:26:24;;;;;;;3.57;3.23;;;24.50;87.90;;;;;;5021662;28;20997;-76
2022/07/27 09:29:02;;;;;;;4.33;3.30;;;24.50;86.90;;;;;;5023209;28;20451;-75
2022/07/27 09:31:28;;;;;;;4.03;3.27;;;24.60;87.20;;;;;;5026322;28;20446;-75
2022/07/27 09:33:56;;;;;;;6.70;3.30;;;24.70;86.70;;;;;;5024237;28;20495;-74
2022/07/27 09:36:25;;;;;;;4.63;3.20;;;24.60;86.70;;;;;;5022298;28;21019;-75
2022/07/27 09:38:51;;;;;;;3.83;3.53;;;24.70;85.70;;;;;;5018967;28;20535;-75
2022/07/27 09:41:17;;;;;;;3.80;3.40;;;24.80;85.40;;;;;;5027405;28;20441;-75
2022/07/27 09:43:55;;;;;;;3.70;3.40;;;24.90;85.10;;;;;;5024765;28;20416;-75
2022/07/27 09:46:31;;;;;;;3.70;3.40;;;24.80;84.90;;;;;;5025638;28;20469;-74
2022/07/27 09:48:57;;;;;;;3.60;3.17;;;24.80;84.80;;;;;;5030947;28;20443;-75
2022/07/27 09:51:25;;;;;;;6.70;3.30;;;24.80;84.60;;;;;;5027063;28;20798;-75
2022/07/27 09:53:55;;;;;;;4.27;3.17;;;24.90;84.40;;;;;;5026453;28;20484;-75
2022/07/27 09:56:29;;;;;;;3.50;3.20;;;24.80;84.40;;;;;;5031180;28;20472;-75
2022/07/27 09:58:57;;;;;;;3.40;3.10;;;25.00;84.20;;;;;;5028083;28;20527;-75
2022/07/27 10:01:29;;;;;;;3.03;2.73;;;25.00;84.10;;;;;;5023723;28;20792;-74
2022/07/27 10:03:59;;;;;;;3.80;3.40;;;25.00;83.30;;;;;;5026519;28;20794;-75
2022/07/27 10:06:26;;;;;;;4.07;3.70;;;25.00;82.90;;;;;;5032511;28;20513;-76
2022/07/27 10:08:53;;;;;;;3.60;3.30;;;25.00;83.00;;;;;;5034557;28;20431;-76
2022/07/27 10:11:21;;;;;;;4.10;3.70;;;25.00;83.20;;;;;;5028927;28;20450;-76
2022/07/27 10:13:47;;;;;;;3.70;3.40;;;25.00;83.30;;;;;;5029243;28;20450;-78
2022/07/27 10:16:19;;;;;;;4.40;3.17;;;25.00;82.30;;;;;;5031258;28;20528;-75
2022/07/27 10:19:04;;;;;;;3.50;3.20;;;25.10;81.90;;;;;;5029527;28;20442;-75
2022/07/27 10:21:31;;;;;;;3.83;3.37;;;25.00;81.20;;;;;;5031563;28;20780;-76
2022/07/27 10:23:58;;;;;;;3.50;3.20;;;25.00;81.10;;;;;;5031478;28;20426;-75
2022/07/27 10:26:24;;;;;;;4.93;3.80;;;25.00;80.80;;;;;;5034299;28;20995;-75
2022/07/27 10:28:58;;;;;;;3.80;3.23;;;25.10;81.20;;;;;;5032219;28;20450;-76
2022/07/27 10:31:30;;;;;;;5.37;3.97;;;25.20;81.20;;;;;;5031911;28;20176;-76
2022/07/27 10:33:59;;;;;;;3.80;3.30;;;25.20;80.50;;;;;;5027431;28;20447;-76
2022/07/27 10:36:31;;;;;;;5.00;3.83;;;25.30;79.80;;;;;;5024144;28;20479;-76
2022/07/27 10:39:01;;;;;;;6.30;3.30;;;25.40;79.50;;;;;;5033195;28;20423;-75
2022/07/27 10:41:30;;;;;;;4.57;4.17;;;25.50;79.30;;;;;;5033383;28;20422;-76
2022/07/27 10:44:17;;;;;;;4.00;3.70;;;25.60;78.40;;;;;;5021632;28;20860;-75
2022/07/27 10:46:44;;;;;;;3.83;3.30;;;25.60;77.60;;;;;;5021182;28;21268;-76
2022/07/27 10:49:18;;;;;;;4.57;3.60;;;25.40;77.30;;;;;;5029830;28;20809;-76
2022/07/27 10:51:43;;;;;;;4.03;3.47;;;25.40;78.00;;;;;;5029270;28;20447;-76
2022/07/27 10:54:21;;;;;;;5.43;3.63;;;25.50;78.20;;;;;;5029029;28;20442;-76
2022/07/27 10:56:48;;;;;;;4.40;3.10;;;25.50;77.60;;;;;;5028298;28;20211;-76
2022/07/27 10:59:37;;;;;;;3.83;3.53;;;25.60;77.40;;;;;;5027195;28;20427;-76
2022/07/27 11:02:04;;;;;;;3.60;3.30;;;25.80;76.30;;;;;;5026832;28;21006;-75
2022/07/27 11:04:31;;;;;;;4.10;3.80;;;25.90;76.40;;;;;;5027708;28;20949;-76
2022/07/27 11:07:01;;;;;;;3.43;3.13;;;25.90;75.10;;;;;;5028835;28;21009;-76
2022/07/27 11:09:41;;;;;;;3.90;3.50;;;25.90;75.10;;;;;;5030187;28;20538;-75
2022/07/27 11:12:09;;;;;;;3.77;3.37;;;26.10;74.40;;;;;;5028743;28;20426;-75
2022/07/27 11:14:56;;;;;;;4.00;3.60;;;26.20;74.20;;;;;;5028432;28;20580;-75
2022/07/27 11:17:27;;;;;;;4.10;3.70;;;26.20;73.80;;;;;;5041632;28;20425;-75
2022/07/27 11:19:55;;;;;;;3.87;3.50;;;26.20;73.60;;;;;;5034233;28;20438;-76
2022/07/27 11:22:37;;;;;;;6.17;3.50;;;26.20;73.80;;;;;;5026683;28;20434;-75
2022/07/27 11:25:04;;;;;;;4.50;3.73;;;26.20;74.50;;;;;;5030521;28;20482;-75
2022/07/27 11:27:30;;;;;;;5.37;3.53;;;26.30;74.40;;;;;;5025645;28;20527;-76
2022/07/27 11:29:56;;;;;;;3.70;3.40;;;26.30;74.00;;;;;;5032945;28;20449;-75
2022/07/27 11:32:22;;;;;;;4.40;3.47;;;26.30;74.10;;;;;;5035474;28;21009;-75
2022/07/27 11:34:48;;;;;;;3.40;3.20;;;26.50;73.70;;;;;;5036449;28;20204;-75
2022/07/27 11:37:22;;;;;;;5.40;3.67;;;26.50;73.60;;;;;;5033678;28;20498;-75
2022/07/27 11:39:57;;;;;;;4.27;3.87;;;26.60;73.60;;;;;;5029782;28;20423;-76
2022/07/27 11:42:23;;;;;;;4.10;3.50;;;26.50;74.00;;;;;;5029193;28;20446;-75
2022/07/27 11:44:49;;;;;;;4.83;4.03;;;26.50;73.50;;;;;;5031270;28;20443;-76
2022/07/27 11:47:16;;;;;;;5.33;4.50;;;26.40;73.10;;;;;;5029087;28;20250;-75
2022/07/27 11:49:42;;;;;;;5.77;3.50;;;26.40;73.60;;;;;;5014984;28;20432;-75
2022/07/27 11:52:09;;;;;;;4.97;4.20;;;26.40;73.10;;;;;;5029707;28;20478;-76
2022/07/27 11:54:38;;;;;;;5.70;3.60;;;26.40;72.60;;;;;;5022383;28;20569;-75
2022/07/27 11:57:06;;;;;;;5.90;3.70;;;26.50;72.70;;;;;;5017904;28;21037;-76
2022/07/27 11:59:33;;;;;;;4.07;3.60;;;26.50;72.40;;;;;;5020725;28;20427;-75
2022/07/27 12:02:02;;;;;;;5.37;3.87;;;26.70;72.10;;;;;;5019743;28;20466;-75
2022/07/27 12:04:36;;;;;;;10.80;4.10;;;26.70;72.00;;;;;;5022988;28;20412;-76
2022/07/27 12:07:09;;;;;;;5.53;3.80;;;27.00;70.80;;;;;;5022981;28;20458;-76
2022/07/27 12:09:58;;;;;;;4.30;3.80;;;27.20;70.70;;;;;;5026192;28;20406;-75
2022/07/27 12:12:29;;;;;;;3.63;3.33;;;27.60;69.50;;;;;;5026396;28;20455;-76
2022/07/27 12:15:02;;;;;;;4.67;3.43;;;27.90;68.60;;;;;;5030573;28;21031;-77
2022/07/27 12:17:32;;;;;;;4.50;4.10;;;28.00;67.50;;;;;;5029853;28;20428;-76
2022/07/27 12:20:13;;;;;;;4.63;3.93;;;28.30;66.60;;;;;;5031302;28;20790;-76
2022/07/27 12:22:48;;;;;;;4.33;3.93;;;28.70;66.50;;;;;;5028383;28;20879;-75
2022/07/27 12:25:17;;;;;;;5.40;4.53;;;29.10;64.50;;;;;;5023732;28;20497;-76
2022/07/27 12:28:14;;;;;;;4.50;4.10;;;29.40;63.70;;;;;;5025559;28;20418;-76
2022/07/27 12:30:45;;;;;;;5.13;4.33;;;29.70;61.90;;;;;;5006618;28;20440;-76
2022/07/27 12:33:29;;;;;;;4.43;4.00;;;29.70;62.10;;;;;;5034060;28;20447;-76
2022/07/27 12:35:56;;;;;;;6.00;3.50;;;29.80;60.40;;;;;;5024395;28;20474;-75
2022/07/27 12:38:23;;;;;;;5.00;4.30;;;29.50;59.90;;;;;;5028972;28;20482;-76
2022/07/27 12:40:51;;;;;;;4.93;4.47;;;29.50;59.90;;;;;;5022751;28;20434;-76
2022/07/27 12:43:20;;;;;;;4.00;3.60;;;29.60;59.90;;;;;;5021909;28;20445;-76
2022/07/27 12:45:47;;;;;;;6.10;4.50;;;29.40;60.50;;;;;;5022624;28;20976;-76
2022/07/27 12:48:25;;;;;;;7.70;4.33;;;29.50;59.90;;;;;;5019819;28;20446;-76
2022/07/27 12:51:01;;;;;;;5.30;4.80;;;29.40;60.10;;;;;;5015835;28;20516;-76
2022/07/27 12:53:28;;;;;;;7.30;4.20;;;29.20;59.30;;;;;;5014084;28;21254;-76